Kingsburg, California
Current Conditions -  °F | °C
As of 6:53 PM on Thursday 27 Nov 2014 (Local Time) from KHJO Reporting Station
Haze Haze  
Wind Chill: 53°   Ceiling: Unl
Heat Index: 53°   Visibility: 4mi
Dew Point: 46°   Wind: 0mph
Humidity: 77%   Direction: NA
Pressure: 30.08"   Gusts: NA
Location:  36.51°N, 119.55°W
Report Text: KHJO 280253Z AUTO 00000KT 4SM HZ CLR 12/08 A3008 RMK AO2 SLP188 T01170078 53001
Loading
Personal Weather Stations






























Interactive Weather Map New forecast layout! Learn more

10-Day Weather Forecast

Advertisements
Track Severe Weather on mobile